Terminal Aerodrome Forecast
Issued by NWS Twin Cities, MN

Home | Current Version | Previous Version | Graphics & Text | Print | Product List | Glossary On
Versions: 1 2 3 4 5 6 7 8 9 10 11 12 13 14 15 16
000
FTUS43 KMPX 180500
TAFEAU
TAF
KEAU 180533Z 1806/1906 03003KT P6SM SKC
     FM180900 07004KT 3SM BR SCT006
      TEMPO 1809/1812 1 1/2SM BR BKN003
     FM181300 11006KT P6SM OVC008
     FM181500 13006KT P6SM BKN012
     FM181700 14006KT P6SM BKN025
     FM181900 15008KT P6SM SCT035=

USA.gov is the U.S. government's official web portal to all federal, state and local government web resources and services.